Time,TemperatureF,DewpointF,PressureIn,WindDirection,WindDirectionDegrees,WindSpeedMPH,WindSpeedGustMPH,Humidity,HourlyPrecipIn,Conditions,Clouds,dailyrainin,SoftwareType,DateUTC
2013-12-18 00:09:00,19.2,15.0,29.99,NNW,338,0.0,0.0,84,0.00,,,0.00,weatherlink.com 1.10,2013-12-18 05:09:00,
2013-12-18 00:25:00,19.5,15.0,29.99,NNW,337,0.0,0.0,84,0.00,,,0.00,weatherlink.com 1.10,2013-12-18 05:25:00,
2013-12-18 00:40:00,19.8,16.0,29.98,NNW,331,0.0,0.0,84,0.00,,,0.00,weatherlink.com 1.10,2013-12-18 05:40:00,
2013-12-18 00:55:00,20.0,16.0,29.98,WNW,291,0.0,3.0,83,0.00,,,0.00,weatherlink.com 1.10,2013-12-18 05:55:00,
2013-12-18 01:12:00,20.3,16.0,29.98,WNW,300,0.0,2.0,84,0.00,,,0.00,weatherlink.com 1.10,2013-12-18 06:12:00,
2013-12-18 01:27:00,20.5,16.0,29.98,NNW,334,0.0,1.0,83,0.00,,,0.00,weatherlink.com 1.10,2013-12-18 06:27:00,
2013-12-18 01:42:00,20.7,16.0,29.98,NW,315,0.0,2.0,83,0.00,,,0.00,weatherlink.com 1.10,2013-12-18 06:42:00,
2013-12-18 01:57:00,21.0,17.0,29.98,NNW,346,1.0,3.0,83,0.00,,,0.00,weatherlink.com 1.10,2013-12-18 06:57:00,
2013-12-18 02:12:00,21.3,17.0,29.98,WNW,300,0.0,2.0,83,0.00,,,0.00,weatherlink.com 1.10,2013-12-18 07:12:00,
2013-12-18 02:27:00,21.5,17.0,29.98,WNW,301,0.0,1.0,83,0.00,,,0.00,weatherlink.com 1.10,2013-12-18 07:27:00,
2013-12-18 02:44:00,21.6,17.0,29.99,NW,309,3.0,3.0,83,0.00,,,0.00,weatherlink.com 1.10,2013-12-18 07:44:00,
2013-12-18 02:58:00,21.6,17.0,30.00,NW,309,0.0,2.0,83,0.00,,,0.00,weatherlink.com 1.10,2013-12-18 07:58:00,
2013-12-18 03:14:00,21.8,17.0,30.00,NNW,336,3.0,4.0,83,0.00,,,0.00,weatherlink.com 1.10,2013-12-18 08:14:00,
2013-12-18 03:28:00,21.9,18.0,29.99,NW,315,3.0,6.0,83,0.00,,,0.00,weatherlink.com 1.10,2013-12-18 08:28:00,
2013-12-18 03:45:00,21.9,17.0,29.99,North,355,0.0,5.0,82,0.00,,,0.00,weatherlink.com 1.10,2013-12-18 08:45:00,
2013-12-18 04:00:00,22.0,17.0,29.98,NW,310,0.0,5.0,82,0.00,,,0.00,weatherlink.com 1.10,2013-12-18 09:00:00,
2013-12-18 04:15:00,22.3,18.0,29.99,NW,321,0.0,4.0,82,0.00,,,0.00,weatherlink.com 1.10,2013-12-18 09:15:00,
2013-12-18 04:30:00,22.2,18.0,29.99,NNW,341,0.0,2.0,82,0.00,,,0.00,weatherlink.com 1.10,2013-12-18 09:30:00,
2013-12-18 04:45:00,22.1,17.0,29.99,NNW,329,2.0,4.0,82,0.00,,,0.00,weatherlink.com 1.10,2013-12-18 09:45:00,
2013-12-18 05:02:00,22.0,17.0,29.99,NNW,339,0.0,5.0,81,0.00,,,0.00,weatherlink.com 1.10,2013-12-18 10:02:00,
2013-12-18 05:17:00,21.7,17.0,30.00,NNW,342,0.0,4.0,81,0.00,,,0.00,weatherlink.com 1.10,2013-12-18 10:17:00,
2013-12-18 05:32:00,21.7,17.0,29.99,NW,311,0.0,6.0,81,0.00,,,0.00,weatherlink.com 1.10,2013-12-18 10:32:00,
2013-12-18 05:47:00,21.8,17.0,30.00,NNW,340,0.0,3.0,81,0.00,,,0.00,weatherlink.com 1.10,2013-12-18 10:47:00,
2013-12-18 06:03:00,21.8,17.0,30.01,NW,321,0.0,2.0,81,0.00,,,0.00,weatherlink.com 1.10,2013-12-18 11:03:00,
2013-12-18 06:18:00,21.3,16.0,30.01,NW,311,2.0,3.0,80,0.00,,,0.00,weatherlink.com 1.10,2013-12-18 11:18:00,
2013-12-18 06:33:00,20.8,16.0,30.02,NNW,328,0.0,5.0,80,0.00,,,0.00,weatherlink.com 1.10,2013-12-18 11:33:00,
2013-12-18 06:48:00,19.9,15.0,30.02,WNW,293,0.0,2.0,80,0.00,,,0.00,weatherlink.com 1.10,2013-12-18 11:48:00,
2013-12-18 07:04:00,19.3,14.0,30.02,NW,325,0.0,2.0,81,0.00,,,0.00,weatherlink.com 1.10,2013-12-18 12:04:00,
2013-12-18 07:19:00,18.6,14.0,30.02,NNW,330,0.0,3.0,81,0.00,,,0.00,weatherlink.com 1.10,2013-12-18 12:19:00,
2013-12-18 07:35:00,17.8,13.0,30.03,WNW,287,2.0,2.0,81,0.00,,,0.00,weatherlink.com 1.10,2013-12-18 12:35:00,
2013-12-18 07:50:00,17.8,13.0,30.04,NNW,336,0.0,2.0,82,0.00,,,0.00,weatherlink.com 1.10,2013-12-18 12:50:00,
2013-12-18 08:05:00,17.4,13.0,30.04,NW,315,0.0,2.0,82,0.00,,,0.00,weatherlink.com 1.10,2013-12-18 13:05:00,
2013-12-18 08:20:00,17.7,13.0,30.05,West,273,0.0,2.0,83,0.00,,,0.00,weatherlink.com 1.10,2013-12-18 13:20:00,
2013-12-18 08:37:00,19.4,15.0,30.05,NNW,335,0.0,3.0,83,0.00,,,0.00,weatherlink.com 1.10,2013-12-18 13:37:00,
2013-12-18 08:52:00,20.7,16.0,30.05,NNW,345,1.0,4.0,81,0.00,,,0.00,weatherlink.com 1.10,2013-12-18 13:52:00,
2013-12-18 09:06:00,21.4,16.0,30.06,NW,307,0.0,3.0,80,0.00,,,0.00,weatherlink.com 1.10,2013-12-18 14:06:00,
2013-12-18 09:22:00,22.5,17.0,30.06,NW,322,0.0,6.0,78,0.00,,,0.00,weatherlink.com 1.10,2013-12-18 14:22:00,
2013-12-18 09:37:00,23.3,17.0,30.06,WSW,257,0.0,1.0,76,0.00,,,0.00,weatherlink.com 1.10,2013-12-18 14:37:00,
2013-12-18 09:54:00,24.5,18.0,30.06,NW,309,0.0,4.0,75,0.00,,,0.00,weatherlink.com 1.10,2013-12-18 14:54:00,
2013-12-18 10:09:00,26.8,19.0,30.06,NNW,340,0.0,5.0,73,0.00,,,0.00,weatherlink.com 1.10,2013-12-18 15:09:00,
2013-12-18 10:23:00,27.5,19.0,30.06,NNW,339,1.0,7.0,71,0.00,,,0.00,weatherlink.com 1.10,2013-12-18 15:23:00,
2013-12-18 10:38:00,27.9,19.0,30.06,WNW,296,2.0,4.0,70,0.00,,,0.00,weatherlink.com 1.10,2013-12-18 15:38:00,
2013-12-18 10:54:00,27.4,19.0,30.06,North,349,2.0,6.0,71,0.00,,,0.00,weatherlink.com 1.10,2013-12-18 15:54:00,
2013-12-18 11:10:00,28.3,20.0,30.06,West,273,1.0,4.0,71,0.00,,,0.00,weatherlink.com 1.10,2013-12-18 16:10:00,
2013-12-18 11:25:00,29.3,21.0,30.05,West,263,0.0,5.0,70,0.00,,,0.00,weatherlink.com 1.10,2013-12-18 16:25:00,
2013-12-18 11:40:00,30.5,21.0,30.05,WNW,303,4.0,5.0,68,0.00,,,0.00,weatherlink.com 1.10,2013-12-18 16:40:00,
2013-12-18 11:55:00,31.0,22.0,30.05,NW,316,4.0,7.0,68,0.00,,,0.00,weatherlink.com 1.10,2013-12-18 16:55:00,
2013-12-18 12:11:00,32.2,22.0,30.05,NW,325,3.0,6.0,67,0.00,,,0.00,weatherlink.com 1.10,2013-12-18 17:11:00,
2013-12-18 12:27:00,33.4,23.0,30.05,NW,304,0.0,5.0,65,0.00,,,0.00,weatherlink.com 1.10,2013-12-18 17:27:00,
2013-12-18 12:41:00,33.7,23.0,30.05,NW,306,1.0,6.0,65,0.00,,,0.00,weatherlink.com 1.10,2013-12-18 17:41:00,
2013-12-18 12:57:00,33.2,23.0,30.05,NNW,329,5.0,10.0,65,0.01,,,0.01,weatherlink.com 1.10,2013-12-18 17:57:00,
2013-12-18 13:14:00,33.9,23.0,30.05,North,349,2.0,9.0,64,0.01,,,0.01,weatherlink.com 1.10,2013-12-18 18:14:00,
2013-12-18 13:28:00,34.1,23.0,30.05,NNW,336,1.0,9.0,64,0.02,,,0.02,weatherlink.com 1.10,2013-12-18 18:28:00,
2013-12-18 13:44:00,34.0,23.0,30.05,NNW,337,0.0,6.0,64,0.03,,,0.03,weatherlink.com 1.10,2013-12-18 18:44:00,
2013-12-18 13:58:00,34.1,23.0,30.05,WNW,298,1.0,4.0,64,0.02,,,0.03,weatherlink.com 1.10,2013-12-18 18:58:00,
2013-12-18 14:14:00,32.2,22.0,30.05,NW,319,3.0,9.0,65,0.03,,,0.04,weatherlink.com 1.10,2013-12-18 19:14:00,
2013-12-18 14:29:00,31.3,21.0,30.05,NNE,29,0.0,7.0,67,0.03,,,0.05,weatherlink.com 1.10,2013-12-18 19:29:00,
2013-12-18 14:44:00,31.2,21.0,30.06,WNW,291,3.0,9.0,67,0.02,,,0.05,weatherlink.com 1.10,2013-12-18 19:44:00,
2013-12-18 15:00:00,32.5,21.0,30.07,NNE,21,1.0,8.0,64,0.03,,,0.06,weatherlink.com 1.10,2013-12-18 20:00:00,
2013-12-18 15:15:00,31.8,20.0,30.07,NW,306,5.0,11.0,62,0.02,,,0.06,weatherlink.com 1.10,2013-12-18 20:15:00,
2013-12-18 15:30:00,30.9,20.0,30.07,NW,319,0.0,9.0,63,0.01,,,0.06,weatherlink.com 1.10,2013-12-18 20:30:00,
2013-12-18 15:47:00,30.8,19.0,30.08,WNW,288,3.0,9.0,63,0.02,,,0.07,weatherlink.com 1.10,2013-12-18 20:47:00,
2013-12-18 16:02:00,30.6,19.0,30.08,WSW,242,0.0,9.0,63,0.01,,,0.07,weatherlink.com 1.10,2013-12-18 21:02:00,
2013-12-18 16:17:00,29.9,19.0,30.09,WNW,302,2.0,6.0,64,0.01,,,0.07,weatherlink.com 1.10,2013-12-18 21:17:00,
2013-12-18 16:32:00,29.4,19.0,30.09,West,281,2.0,3.0,65,0.01,,,0.07,weatherlink.com 1.10,2013-12-18 21:32:00,
2013-12-18 16:47:00,28.8,19.0,30.09,West,274,1.0,9.0,66,0.00,,,0.07,weatherlink.com 1.10,2013-12-18 21:47:00,
2013-12-18 17:03:00,28.5,19.0,30.11,West,279,0.0,4.0,67,0.00,,,0.07,weatherlink.com 1.10,2013-12-18 22:03:00,
2013-12-18 17:17:00,28.2,19.0,30.11,West,267,0.0,4.0,68,0.00,,,0.07,weatherlink.com 1.10,2013-12-18 22:17:00,
2013-12-18 17:34:00,28.0,19.0,30.11,West,279,0.0,4.0,69,0.00,,,0.07,weatherlink.com 1.10,2013-12-18 22:34:00,
2013-12-18 17:48:00,27.7,19.0,30.11,SW,231,0.0,5.0,70,0.00,,,0.07,weatherlink.com 1.10,2013-12-18 22:48:00,
2013-12-18 18:03:00,28.1,19.0,30.12,SW,216,0.0,6.0,70,0.00,,,0.07,weatherlink.com 1.10,2013-12-18 23:03:00,
2013-12-18 18:20:00,28.5,20.0,30.13,WSW,250,1.0,3.0,70,0.00,,,0.07,weatherlink.com 1.10,2013-12-18 23:20:00,
2013-12-18 18:35:00,28.6,20.0,30.13,SW,225,0.0,3.0,70,0.00,,,0.07,weatherlink.com 1.10,2013-12-18 23:35:00,
2013-12-18 18:50:00,28.5,20.0,30.14,SSW,213,0.0,3.0,70,0.00,,,0.07,weatherlink.com 1.10,2013-12-18 23:50:00,
2013-12-18 19:05:00,28.8,20.0,30.14,West,264,0.0,4.0,69,0.00,,,0.07,weatherlink.com 1.10,2013-12-19 00:05:00,
2013-12-18 19:20:00,28.6,20.0,30.14,SW,219,2.0,4.0,70,0.00,,,0.07,weatherlink.com 1.10,2013-12-19 00:20:00,
2013-12-18 19:37:00,28.3,20.0,30.15,SW,222,1.0,4.0,70,0.00,,,0.07,weatherlink.com 1.10,2013-12-19 00:37:00,
2013-12-18 19:52:00,27.9,20.0,30.15,WNW,302,2.0,4.0,71,0.00,,,0.07,weatherlink.com 1.10,2013-12-19 00:52:00,
2013-12-18 20:06:00,27.6,19.0,30.16,SSW,205,1.0,5.0,71,0.00,,,0.07,weatherlink.com 1.10,2013-12-19 01:06:00,
2013-12-18 20:21:00,27.6,19.0,30.16,WSW,247,0.0,6.0,71,0.00,,,0.07,weatherlink.com 1.10,2013-12-19 01:21:00,
2013-12-18 20:38:00,27.8,20.0,30.16,WSW,250,0.0,3.0,72,0.00,,,0.07,weatherlink.com 1.10,2013-12-19 01:38:00,
2013-12-18 20:54:00,27.6,20.0,30.16,SW,236,1.0,3.0,72,0.00,,,0.07,weatherlink.com 1.10,2013-12-19 01:54:00,
2013-12-18 21:08:00,27.5,19.0,30.16,WSW,242,1.0,3.0,71,0.00,,,0.07,weatherlink.com 1.10,2013-12-19 02:08:00,
2013-12-18 21:23:00,26.6,19.0,30.16,SW,236,0.0,3.0,72,0.00,,,0.07,weatherlink.com 1.10,2013-12-19 02:23:00,
2013-12-18 21:39:00,26.4,19.0,30.16,SW,232,0.0,3.0,73,0.00,,,0.07,weatherlink.com 1.10,2013-12-19 02:39:00,
2013-12-18 21:55:00,26.5,19.0,30.16,SSW,212,2.0,3.0,73,0.00,,,0.07,weatherlink.com 1.10,2013-12-19 02:55:00,
2013-12-18 22:10:00,26.7,19.0,30.17,WNW,301,0.0,5.0,72,0.00,,,0.07,weatherlink.com 1.10,2013-12-19 03:10:00,
2013-12-18 22:25:00,26.4,19.0,30.17,SW,230,0.0,4.0,72,0.00,,,0.07,weatherlink.com 1.10,2013-12-19 03:25:00,
2013-12-18 22:40:00,26.0,18.0,30.18,SW,234,0.0,4.0,72,0.00,,,0.07,weatherlink.com 1.10,2013-12-19 03:40:00,
2013-12-18 22:55:00,25.6,18.0,30.17,SW,229,2.0,3.0,73,0.00,,,0.07,weatherlink.com 1.10,2013-12-19 03:55:00,
2013-12-18 23:10:00,25.6,18.0,30.17,SSW,207,0.0,3.0,73,0.00,,,0.07,weatherlink.com 1.10,2013-12-19 04:10:00,
2013-12-18 23:26:00,25.3,18.0,30.16,SW,227,1.0,2.0,73,0.00,,,0.07,weatherlink.com 1.10,2013-12-19 04:26:00,
2013-12-18 23:42:00,24.8,17.0,30.17,SW,227,0.0,3.0,73,0.00,,,0.07,weatherlink.com 1.10,2013-12-19 04:42:00,
2013-12-18 23:57:00,23.7,17.0,30.17,SW,222,0.0,2.0,75,0.00,,,0.07,weatherlink.com 1.10,2013-12-19 04:57:00,